Time;durP1;ratioP1;P1;durP2;ratioP2;P2;SDS_P1;SDS_P2;PMS_P1;PMS_P2;Temp;Humidity;BMP_temperature;BMP_pressure;BME280_temperature;BME280_humidity;BME280_pressure;Samples;Min_cycle;Max_cycle;Signal;HPM_P1;HPM_P2
2022/08/16 08:40:12;;;;;;;10.63;9.52;;;;;;;30.74;51.33;99969.88;5094987;27;20374;-68
2022/08/16 08:42:39;;;;;;;10.52;9.48;;;;;;;30.86;51.39;99978.50;5092968;28;20086;-68
2022/08/16 08:45:04;;;;;;;10.82;9.73;;;;;;;30.91;51.26;99976.09;5111171;28;20127;-68
2022/08/16 08:47:31;;;;;;;9.85;8.93;;;;;;;30.99;50.85;99980.66;5109357;28;20036;-68
2022/08/16 08:49:57;;;;;;;11.48;10.25;;;;;;;31.02;51.08;99981.16;5111035;28;20520;-68
2022/08/16 08:52:23;;;;;;;12.77;11.48;;;;;;;30.98;51.26;99977.09;5110884;28;20071;-68
2022/08/16 08:54:48;;;;;;;14.20;12.00;;;;;;;31.03;50.76;99971.16;5109020;28;20455;-67
2022/08/16 08:57:14;;;;;;;12.45;10.98;;;;;;;31.10;50.59;99981.13;5110500;28;20032;-67
2022/08/16 08:59:39;;;;;;;10.40;8.80;;;;;;;31.19;50.54;99975.66;5111086;28;20391;-68
2022/08/16 09:02:07;;;;;;;11.80;10.70;;;;;;;31.29;49.98;99971.75;5110910;28;20474;-68
2022/08/16 09:04:33;;;;;;;11.27;10.18;;;;;;;31.36;49.60;99977.34;5110792;28;20043;-68
2022/08/16 09:06:59;;;;;;;10.50;9.40;;;;;;;31.43;49.50;99966.59;5105616;28;20456;-67
2022/08/16 09:09:24;;;;;;;13.13;11.82;;;;;;;31.49;49.38;99972.16;5086241;28;20057;-68
2022/08/16 09:11:51;;;;;;;11.20;10.02;;;;;;;31.51;49.52;99975.53;5090235;28;20036;-68
2022/08/16 09:14:16;;;;;;;14.43;10.50;;;;;;;31.60;49.21;99974.47;5089485;28;20042;-67
2022/08/16 09:16:42;;;;;;;10.77;9.73;;;;;;;31.64;49.00;99973.09;5078474;28;20044;-67
2022/08/16 09:19:08;;;;;;;11.02;9.93;;;;;;;31.64;48.88;99975.81;5087822;28;20059;-68
2022/08/16 09:21:34;;;;;;;17.13;12.27;;;;;;;31.73;49.31;99973.03;5087570;28;20434;-68
2022/08/16 09:24:01;;;;;;;10.13;9.13;;;;;;;31.78;48.78;99967.91;5075297;28;20399;-68
2022/08/16 09:26:26;;;;;;;12.60;9.18;;;;;;;31.75;48.90;99973.69;5072954;28;20043;-67
2022/08/16 09:28:52;;;;;;;10.95;9.88;;;;;;;31.79;48.62;99969.59;5088925;28;20115;-68
2022/08/16 09:31:18;;;;;;;11.27;9.63;;;;;;;31.80;48.47;99969.44;5089589;28;20116;-68
2022/08/16 09:33:45;;;;;;;11.48;10.32;;;;;;;31.88;48.29;99961.25;5090904;28;20028;-68
2022/08/16 09:36:11;;;;;;;11.18;8.85;;;;;;;31.99;48.11;99961.84;5108298;28;20035;-68
2022/08/16 09:38:38;;;;;;;14.38;10.38;;;;;;;32.03;48.21;99964.00;5113352;28;20427;-68
2022/08/16 09:41:06;;;;;;;10.18;9.20;;;;;;;32.12;47.72;99971.06;5089964;28;20077;-68
2022/08/16 09:43:33;;;;;;;10.50;9.40;;;;;;;32.18;47.48;99969.50;5088373;28;20024;-68
2022/08/16 09:45:59;;;;;;;10.38;9.30;;;;;;;32.24;47.16;99973.38;5088478;28;20119;-68
2022/08/16 09:48:25;;;;;;;10.00;8.90;;;;;;;32.28;47.17;99967.38;5088702;28;20044;-68
2022/08/16 09:50:51;;;;;;;10.30;9.30;;;;;;;32.32;46.97;99981.44;5080087;28;20081;-68
2022/08/16 09:53:19;;;;;;;10.93;8.23;;;;;;;32.34;46.95;99968.50;5066014;28;20119;-67
2022/08/16 09:55:47;;;;;;;9.32;8.32;;;;;;;32.40;47.13;99972.38;5074972;28;20031;-66
2022/08/16 09:58:13;;;;;;;9.23;8.30;;;;;;;32.46;46.72;99977.09;5063575;28;20488;-67
2022/08/16 10:00:39;;;;;;;11.07;9.35;;;;;;;32.49;46.66;99982.16;5076165;28;20040;-66
2022/08/16 10:03:04;;;;;;;9.85;8.43;;;;;;;32.50;46.10;99979.25;5084891;28;20028;-68
2022/08/16 10:05:31;;;;;;;8.82;8.00;;;;;;;32.53;45.83;99965.28;5075776;28;20048;-67
2022/08/16 10:07:57;;;;;;;9.60;8.63;;;;;;;32.56;46.01;99969.53;5074743;28;20044;-67
2022/08/16 10:10:23;;;;;;;10.20;8.52;;;;;;;32.53;45.81;99978.88;5071046;28;20033;-67
2022/08/16 10:15:33;;;;;;;9.90;8.82;;;;;;;32.79;45.33;99969.41;5075238;28;20044;-70
2022/08/16 10:17:59;;;;;;;10.82;9.30;;;;;;;32.76;45.30;99972.53;5074173;28;20039;-71
2022/08/16 10:20:26;;;;;;;9.88;8.13;;;;;;;32.82;45.16;99977.22;5071961;28;20048;-68
2022/08/16 10:22:52;;;;;;;9.52;8.43;;;;;;;32.81;44.88;99975.53;5058564;28;20036;-69
2022/08/16 10:25:18;;;;;;;9.43;8.38;;;;;;;32.87;45.07;99970.16;5092057;28;20437;-71
2022/08/16 10:27:45;;;;;;;9.20;8.15;;;;;;;32.95;44.81;99971.16;5078760;28;20040;-72
2022/08/16 10:30:11;;;;;;;9.55;8.45;;;;;;;33.00;44.75;99966.84;5067202;28;20407;-71
2022/08/16 10:32:36;;;;;;;9.05;7.47;;;;;;;32.95;44.71;99971.97;5069169;28;20504;-72
2022/08/16 10:35:03;;;;;;;9.98;8.43;;;;;;;33.03;44.29;99971.88;5071788;28;20070;-72
2022/08/16 10:37:29;;;;;;;8.88;7.40;;;;;;;33.08;44.18;99969.47;5071936;28;20036;-72
2022/08/16 10:39:55;;;;;;;10.00;7.80;;;;;;;33.11;43.91;99957.34;5063543;28;20146;-71
2022/08/16 10:42:21;;;;;;;8.23;7.38;;;;;;;33.21;43.77;99967.94;5053898;28;20464;-71
2022/08/16 10:44:47;;;;;;;7.78;6.97;;;;;;;33.29;42.95;99960.50;5054739;28;20033;-72
2022/08/16 10:47:13;;;;;;;8.43;7.28;;;;;;;33.16;43.39;99975.84;5072368;28;20037;-73
2022/08/16 10:49:39;;;;;;;8.88;7.28;;;;;;;32.91;43.95;99965.19;5072759;28;20036;-72
2022/08/16 10:52:04;;;;;;;8.77;7.93;;;;;;;33.13;42.78;99962.59;5073246;28;20044;-72
2022/08/16 10:54:30;;;;;;;7.63;6.47;;;;;;;33.28;42.80;99966.16;5076606;28;20036;-71
2022/08/16 10:57:01;;;;;;;7.43;6.50;;;;;;;33.44;42.79;99952.31;5074750;28;20037;-71
2022/08/16 10:59:30;;;;;;;7.97;6.10;;;;;;;33.64;42.23;99951.72;5074590;28;20471;-71
2022/08/16 11:01:56;;;;;;;7.10;6.40;;;;;;;33.77;41.53;99952.69;5073621;28;20410;-70
2022/08/16 11:04:21;;;;;;;6.97;6.28;;;;;;;33.90;41.43;99951.97;5074778;28;20391;-70
2022/08/16 11:06:47;;;;;;;7.97;6.68;;;;;;;34.06;41.33;99956.34;5074658;28;20032;-69
2022/08/16 11:09:12;;;;;;;7.07;6.38;;;;;;;34.02;41.64;99953.16;5074402;28;20125;-69
2022/08/16 11:11:38;;;;;;;7.45;6.15;;;;;;;33.96;41.61;99959.38;5074453;28;20024;-69
2022/08/16 11:14:03;;;;;;;6.95;6.25;;;;;;;33.95;41.75;99965.00;5074467;28;20032;-70
2022/08/16 11:16:29;;;;;;;7.03;6.10;;;;;;;34.06;41.28;99961.81;5062763;28;20063;-69
2022/08/16 11:18:55;;;;;;;7.82;5.65;;;;;;;34.41;40.39;99970.91;5077675;28;20027;-69
2022/08/16 11:21:22;;;;;;;8.52;6.28;;;;;;;34.63;39.95;99966.28;5094653;28;20086;-69
2022/08/16 11:23:48;;;;;;;7.88;6.10;;;;;;;34.78;39.69;99960.69;5081784;28;20107;-68
2022/08/16 11:26:13;;;;;;;7.38;5.63;;;;;;;34.97;38.93;99968.16;5091556;28;20143;-70
2022/08/16 11:28:39;;;;;;;7.83;5.97;;;;;;;34.96;39.08;99966.47;5069595;28;20050;-69
2022/08/16 11:31:05;;;;;;;10.23;6.20;;;;;;;34.93;39.42;99964.16;5083225;28;20759;-70
2022/08/16 11:33:31;;;;;;;8.30;6.22;;;;;;;34.96;39.57;99962.91;5084815;28;20075;-70
2022/08/16 11:35:56;;;;;;;7.05;6.35;;;;;;;34.90;39.36;99953.63;5090033;28;20473;-70
2022/08/16 11:38:22;;;;;;;8.18;6.50;;;;;;;34.54;39.60;99949.22;5094100;28;20048;-70
2022/08/16 11:40:57;;;;;;;8.10;6.07;;;;;;;34.65;39.33;99952.44;5086057;28;20495;-69
2022/08/16 11:43:35;;;;;;;6.35;5.75;;;;;;;34.71;39.92;99954.34;5068676;28;20025;-69
2022/08/16 11:46:06;;;;;;;6.47;5.60;;;;;;;34.78;39.68;99956.06;5074044;28;20490;-70
2022/08/16 11:48:33;;;;;;;7.00;5.63;;;;;;;34.80;39.39;99953.16;5069498;28;20032;-69
2022/08/16 11:50:59;;;;;;;12.85;6.93;;;;;;;34.90;39.15;99956.34;5072826;28;20036;-69
2022/08/16 11:53:27;;;;;;;6.78;5.60;;;;;;;35.08;39.40;99955.88;5069029;28;20081;-70
2022/08/16 11:55:53;;;;;;;7.60;5.88;;;;;;;35.16;39.21;99941.19;5073580;28;20029;-70
2022/08/16 11:58:19;;;;;;;7.13;5.43;;;;;;;35.19;38.92;99946.22;5071860;28;20123;-70
2022/08/16 12:00:45;;;;;;;6.72;5.80;;;;;;;35.21;38.61;99945.00;5058828;28;20119;-70
2022/08/16 12:03:11;;;;;;;6.72;6.13;;;;;;;35.28;38.26;99947.75;5053618;28;20033;-69
2022/08/16 12:05:38;;;;;;;6.95;5.85;;;;;;;35.49;37.75;99947.63;5053998;28;20039;-69
2022/08/16 12:08:05;;;;;;;5.88;5.28;;;;;;;35.56;37.99;99950.41;5053568;28;20177;-68
2022/08/16 12:10:32;;;;;;;6.85;5.75;;;;;;;35.51;37.77;99951.03;5068773;28;20064;-68
2022/08/16 12:12:58;;;;;;;7.50;6.00;;;;;;;35.41;38.27;99944.22;5073145;28;20032;-68
2022/08/16 12:15:25;;;;;;;6.18;5.57;;;;;;;35.47;37.51;99949.72;5073555;28;20039;-69
2022/08/16 12:17:52;;;;;;;7.03;5.93;;;;;;;35.52;37.93;99947.22;5073622;28;20078;-69
2022/08/16 12:20:24;;;;;;;7.22;5.75;;;;;;;35.31;37.34;99944.63;5073489;28;20037;-69
2022/08/16 12:22:54;;;;;;;6.82;5.53;;;;;;;35.21;37.29;99941.41;5075877;28;20027;-67
2022/08/16 12:25:21;;;;;;;5.78;4.82;;;;;;;35.09;38.27;99946.63;5072997;28;20033;-70
2022/08/16 12:27:48;;;;;;;6.35;5.30;;;;;;;34.95;38.53;99945.69;5073374;28;20486;-70
2022/08/16 12:30:18;;;;;;;5.65;5.05;;;;;;;34.97;38.77;99949.03;5073101;28;20048;-70
2022/08/16 12:32:43;;;;;;;6.40;5.60;;;;;;;34.98;38.32;99939.84;5073481;28;20032;-70
2022/08/16 12:35:14;;;;;;;8.40;5.57;;;;;;;34.90;37.82;99936.41;5072870;28;20025;-69
2022/08/16 12:37:41;;;;;;;6.22;5.63;;;;;;;34.97;37.67;99937.28;5073028;28;20108;-68
2022/08/16 12:40:09;;;;;;;8.38;6.25;;;;;;;35.09;37.44;99934.88;5072718;28;20473;-70
2022/08/16 12:42:35;;;;;;;6.63;5.88;;;;;;;35.20;37.42;99935.13;5073621;28;20111;-69
2022/08/16 12:45:05;;;;;;;6.20;4.90;;;;;;;35.24;38.08;99932.81;5073571;28;20171;-70
2022/08/16 12:50:15;;;;;;;9.50;6.25;;;;;;;35.25;37.21;99929.03;5073098;28;20094;-70
2022/08/16 12:52:40;;;;;;;6.28;5.20;;;;;;;35.15;37.30;99923.13;5073031;28;20036;-70
2022/08/16 12:55:06;;;;;;;6.75;5.45;;;;;;;34.96;38.11;99908.31;5071894;28;20039;-71
2022/08/16 12:57:32;;;;;;;7.05;5.32;;;;;;;34.78;37.96;99912.41;5073047;28;20472;-71
2022/08/16 12:59:58;;;;;;;5.85;5.25;;;;;;;34.65;37.96;99900.59;5072864;28;20445;-68
2022/08/16 13:02:23;;;;;;;6.38;5.35;;;;;;;34.52;38.88;99904.94;5072946;28;20086;-70
2022/08/16 13:04:49;;;;;;;5.78;5.20;;;;;;;34.40;38.71;99900.22;5073223;28;20502;-72
2022/08/16 13:07:15;;;;;;;7.03;5.47;;;;;;;34.32;39.54;99906.66;5073569;28;20108;-72
2022/08/16 13:09:51;;;;;;;6.43;5.80;;;;;;;34.40;39.28;99895.59;5072473;28;20426;-73
2022/08/16 13:12:22;;;;;;;5.97;5.18;;;;;;;34.62;38.46;99898.28;5058918;28;20037;-72
2022/08/16 13:14:50;;;;;;;7.05;5.45;;;;;;;34.88;37.68;99901.16;5072480;28;20040;-73
2022/08/16 13:17:19;;;;;;;6.03;5.43;;;;;;;35.17;38.02;99894.56;5080516;28;20180;-72
2022/08/16 13:19:50;;;;;;;7.25;4.90;;;;;;;35.30;37.53;99889.13;5076678;28;20029;-73
2022/08/16 13:22:16;;;;;;;5.85;5.18;;;;;;;35.42;37.32;99886.66;5082215;28;20064;-72
2022/08/16 13:24:41;;;;;;;7.32;5.38;;;;;;;35.35;37.02;99888.56;5091773;28;20497;-72
2022/08/16 13:27:06;;;;;;;6.82;5.70;;;;;;;35.24;36.79;99889.97;5081864;28;20036;-71
2022/08/16 13:29:32;;;;;;;7.82;5.55;;;;;;;35.14;36.83;99891.41;5078122;28;20502;-71
2022/08/16 13:31:57;;;;;;;5.38;4.85;;;;;;;34.95;37.53;99893.84;5074770;28;20039;-72
2022/08/16 13:34:23;;;;;;;8.13;5.50;;;;;;;34.76;38.19;99891.84;5078990;28;20107;-70
2022/08/16 13:36:48;;;;;;;7.78;6.55;;;;;;;34.51;38.56;99894.22;5084773;28;20171;-72
2022/08/16 13:39:14;;;;;;;10.40;6.60;;;;;;;34.29;39.01;99896.16;5090682;28;20056;-71
2022/08/16 13:41:40;;;;;;;6.53;5.85;;;;;;;34.15;39.56;99894.34;5078395;28;20503;-72
2022/08/16 13:44:06;;;;;;;8.75;6.15;;;;;;;33.95;39.70;99889.56;5075680;28;20041;-71
2022/08/16 13:46:32;;;;;;;10.15;6.43;;;;;;;33.77;39.89;99881.88;5075812;28;20025;-71
2022/08/16 13:48:59;;;;;;;6.47;5.88;;;;;;;33.62;40.10;99881.09;5095729;28;20043;-72
2022/08/16 13:51:26;;;;;;;7.45;5.88;;;;;;;33.47;40.44;99875.69;5075145;28;20161;-72
2022/08/16 13:53:54;;;;;;;7.57;6.35;;;;;;;33.37;40.53;99877.03;5085616;28;20024;-71
2022/08/16 13:56:22;;;;;;;8.23;5.95;;;;;;;33.22;40.77;99871.63;5079880;28;20054;-71
2022/08/16 13:58:48;;;;;;;7.13;6.15;;;;;;;33.09;41.34;99865.00;5074519;28;20035;-71
2022/08/16 14:01:14;;;;;;;9.18;6.97;;;;;;;32.92;41.60;99868.97;5075729;28;20032;-70
2022/08/16 14:03:40;;;;;;;8.38;6.57;;;;;;;32.91;41.94;99863.69;5075612;28;20044;-70
2022/08/16 14:06:08;;;;;;;9.48;6.57;;;;;;;32.85;41.84;99877.03;5076786;28;20033;-70
2022/08/16 14:08:34;;;;;;;7.00;6.30;;;;;;;32.77;42.22;99879.03;5076982;28;20123;-70
2022/08/16 14:10:59;;;;;;;7.32;6.63;;;;;;;32.78;41.88;99886.97;5076675;28;20056;-71
2022/08/16 14:13:25;;;;;;;10.98;5.80;;;;;;;32.77;41.96;99889.91;5081665;28;20962;-70
2022/08/16 14:15:50;;;;;;;7.85;6.47;;;;;;;32.72;42.36;99904.06;5054774;28;20146;-70
2022/08/16 14:18:15;;;;;;;7.97;6.43;;;;;;;32.65;42.26;99903.13;5058626;28;20036;-70
2022/08/16 14:20:41;;;;;;;8.68;6.28;;;;;;;32.56;42.25;99905.09;5087019;28;20028;-70
2022/08/16 14:23:07;;;;;;;7.90;6.13;;;;;;;32.52;42.62;99906.50;5072154;28;20082;-70
2022/08/16 14:25:32;;;;;;;6.88;5.88;;;;;;;32.38;42.57;99899.13;5075426;28;20033;-71
2022/08/16 14:27:58;;;;;;;6.78;6.07;;;;;;;32.32;42.83;99906.19;5069586;28;20032;-66
2022/08/16 14:30:24;;;;;;;8.40;6.63;;;;;;;32.25;43.00;99926.13;5078569;28;20040;-70
2022/08/16 14:32:50;;;;;;;7.13;6.20;;;;;;;32.05;43.44;99932.06;5095736;28;20411;-70
2022/08/16 14:35:23;;;;;;;7.78;6.75;;;;;;;31.91;43.93;99948.31;5071805;28;20037;-70
2022/08/16 14:37:48;;;;;;;8.05;6.68;;;;;;;31.85;44.34;99955.31;5092631;28;20118;-69
2022/08/16 14:40:16;;;;;;;7.28;6.43;;;;;;;31.74;44.80;99961.97;5085422;28;20036;-69
2022/08/16 14:42:42;;;;;;;9.95;7.60;;;;;;;31.61;44.96;99962.59;5085278;28;20039;-69
2022/08/16 14:45:09;;;;;;;10.88;6.90;;;;;;;31.56;44.99;99973.16;5074913;28;20055;-70
2022/08/16 14:47:36;;;;;;;8.57;7.30;;;;;;;31.45;45.09;99962.69;5068621;28;20106;-70
2022/08/16 14:50:06;;;;;;;7.85;7.13;;;;;;;31.37;45.24;99957.31;5072385;28;20449;-70
2022/08/16 14:52:31;;;;;;;9.10;7.30;;;;;;;31.17;45.83;99955.00;5072118;28;20081;-71
2022/08/16 14:54:57;;;;;;;12.27;9.10;;;;;;;30.59;47.05;99964.28;5074962;28;20123;-70
2022/08/16 14:57:22;;;;;;;8.05;7.25;;;;;;;30.41;47.48;99971.78;5075491;28;20041;-70
2022/08/16 14:59:48;;;;;;;9.00;8.10;;;;;;;30.06;48.20;99981.94;5064509;28;20036;-70
2022/08/16 15:02:22;;;;;;;12.10;8.38;;;;;;;29.66;48.96;99988.97;5089155;28;20111;-70
2022/08/16 15:04:48;;;;;;;7.97;7.20;;;;;;;29.76;48.54;100037.56;5079694;28;20036;-72
2022/08/16 15:07:16;;;;;;;11.75;8.10;;;;;;;29.38;50.16;100018.13;5066640;28;20040;-69
2022/08/16 15:09:43;;;;;;;8.70;7.80;;;;;;;29.32;50.76;100010.66;5061720;28;20033;-71
2022/08/16 15:12:15;;;;;;;10.40;7.90;;;;;;;28.66;51.86;100028.34;5062281;28;20131;-72
2022/08/16 15:14:42;;;;;;;9.52;7.90;;;;;;;28.36;52.30;100026.94;5077114;28;20059;-73
2022/08/16 15:17:08;;;;;;;8.77;7.45;;;;;;;28.34;52.14;100023.53;5057626;28;20112;-72
2022/08/16 15:19:34;;;;;;;8.60;6.90;;;;;;;28.37;51.87;100023.25;5076140;28;20040;-72
2022/08/16 15:22:01;;;;;;;8.98;6.85;;;;;;;28.30;51.65;100015.88;5071511;28;20427;-71
2022/08/16 15:24:27;;;;;;;6.72;6.00;;;;;;;28.16;52.15;100015.41;5084758;28;20116;-67
2022/08/16 15:26:52;;;;;;;7.72;6.72;;;;;;;27.91;52.71;100005.41;5064769;28;20037;-73
2022/08/16 15:29:19;;;;;;;8.15;6.43;;;;;;;27.67;53.31;100009.50;5091814;28;20126;-72
2022/08/16 15:31:46;;;;;;;7.45;6.18;;;;;;;27.46;53.96;100006.25;5088538;28;20046;-71
2022/08/16 15:34:12;;;;;;;7.60;6.22;;;;;;;27.17;55.23;100007.25;5072257;28;20438;-73
2022/08/16 15:36:39;;;;;;;10.18;6.60;;;;;;;27.01;55.84;100021.34;5073823;28;20407;-72
2022/08/16 15:39:05;;;;;;;7.40;6.28;;;;;;;26.99;56.45;100008.97;5073418;28;20057;-73
2022/08/16 15:41:39;;;;;;;7.43;6.43;;;;;;;26.95;58.11;100008.44;5080140;28;20032;-73
2022/08/16 15:44:08;;;;;;;9.50;5.57;;;;;;;26.87;57.65;100012.84;5065070;28;20032;-71
2022/08/16 15:46:33;;;;;;;7.03;5.43;;;;;;;26.67;58.04;100007.53;5081691;28;20054;-72
2022/08/16 15:48:59;;;;;;;7.30;5.03;;;;;;;26.74;57.85;100018.56;5094038;28;20100;-73
2022/08/16 15:51:26;;;;;;;6.28;4.90;;;;;;;26.69;57.96;100032.50;5093974;28;20536;-71
2022/08/16 15:53:52;;;;;;;5.43;4.90;;;;;;;26.75;57.67;100049.91;5093987;28;20059;-72
2022/08/16 15:56:18;;;;;;;5.95;5.03;;;;;;;26.82;57.29;100045.66;5093148;28;20089;-72
2022/08/16 15:58:44;;;;;;;5.68;4.35;;;;;;;26.97;56.90;100054.97;5085579;28;20036;-71
2022/08/16 16:01:09;;;;;;;6.28;5.03;;;;;;;27.07;56.95;100063.00;5072365;28;20032;-71
2022/08/16 16:03:35;;;;;;;6.55;5.28;;;;;;;26.91;57.57;100054.69;5093745;28;20101;-71
2022/08/16 16:06:02;;;;;;;8.45;5.55;;;;;;;26.78;58.20;100046.94;5083965;28;20107;-68
2022/08/16 16:08:28;;;;;;;7.25;5.40;;;;;;;26.63;58.77;100043.84;5105814;28;20390;-71
2022/08/16 16:10:57;;;;;;;8.20;5.30;;;;;;;26.55;59.43;100038.31;5068976;28;20031;-70
2022/08/16 16:13:23;;;;;;;9.90;5.93;;;;;;;26.57;59.53;100035.47;5080063;28;20032;-70
2022/08/16 16:15:52;;;;;;;9.70;5.75;;;;;;;26.57;60.25;100025.56;5074227;28;20082;-71
2022/08/16 16:18:18;;;;;;;7.22;5.10;;;;;;;26.47;60.77;100020.19;5057791;28;20090;-71
2022/08/16 16:20:53;;;;;;;8.93;5.35;;;;;;;26.52;61.63;100027.81;5066457;28;20048;-67
2022/08/16 16:23:23;;;;;;;6.95;5.53;;;;;;;26.51;60.99;100026.97;5105789;28;20020;-70
2022/08/16 16:25:50;;;;;;;7.57;5.45;;;;;;;26.64;60.88;100018.59;5073395;28;20107;-70
2022/08/16 16:28:19;;;;;;;6.43;4.70;;;;;;;26.75;60.66;100012.19;5073080;28;20056;-69
2022/08/16 16:30:44;;;;;;;6.72;4.65;;;;;;;26.86;60.46;100008.47;5053481;28;20045;-70
2022/08/16 16:33:16;;;;;;;6.82;4.55;;;;;;;26.91;61.10;100000.78;5052959;28;20040;-70
2022/08/16 16:35:42;;;;;;;6.47;4.55;;;;;;;26.94;60.24;100001.34;5068094;28;20124;-70
2022/08/16 16:38:07;;;;;;;8.90;5.57;;;;;;;26.93;60.39;100006.88;5061247;28;20044;-69
2022/08/16 16:40:34;;;;;;;6.47;5.40;;;;;;;27.02;60.32;100020.31;5072852;28;20036;-68
2022/08/16 16:43:01;;;;;;;6.85;4.55;;;;;;;27.00;60.81;100027.69;5081796;28;20575;-69
2022/08/16 16:45:28;;;;;;;7.18;5.47;;;;;;;26.92;61.16;100027.59;5084755;28;20036;-69
2022/08/16 16:47:54;;;;;;;5.95;5.35;;;;;;;26.95;60.95;100021.06;5065001;28;20093;-69
2022/08/16 16:50:21;;;;;;;6.70;5.28;;;;;;;26.96;60.89;100028.13;5091198;28;20488;-69
2022/08/16 16:52:52;;;;;;;6.25;5.30;;;;;;;26.96;61.11;100041.63;5060956;28;20020;-69
2022/08/16 16:55:18;;;;;;;7.65;5.40;;;;;;;26.93;60.97;100031.13;5067975;28;20025;-68
2022/08/16 17:00:27;;;;;;;7.03;5.38;;;;;;;27.00;60.92;100026.84;5079814;28;20043;-68
2022/08/16 17:02:55;;;;;;;6.50;5.25;;;;;;;27.05;60.96;100029.09;5080716;28;20036;-68
2022/08/16 17:05:21;;;;;;;6.07;5.32;;;;;;;27.08;60.87;100035.06;5077787;28;20032;-67
2022/08/16 17:07:48;;;;;;;7.93;5.90;;;;;;;27.11;61.00;100039.34;5077709;28;20052;-66
2022/08/16 17:10:14;;;;;;;6.15;5.55;;;;;;;27.10;61.25;100040.31;5074774;28;20506;-69
2022/08/16 17:12:39;;;;;;;7.55;6.75;;;;;;;27.12;61.14;100041.88;5082080;28;20040;-68
2022/08/16 17:15:06;;;;;;;6.78;5.40;;;;;;;27.14;61.38;100049.84;5087508;28;20189;-68
2022/08/16 17:17:32;;;;;;;6.53;5.65;;;;;;;27.11;61.34;100036.66;5090171;28;20108;-69
2022/08/16 17:19:57;;;;;;;7.72;5.78;;;;;;;27.15;61.52;100036.19;5084278;28;20036;-70
2022/08/16 17:22:23;;;;;;;7.50;6.00;;;;;;;27.20;61.33;100033.91;5078693;28;20048;-70
2022/08/16 17:24:51;;;;;;;9.77;6.50;;;;;;;27.21;61.43;100037.44;5079621;28;20484;-69
2022/08/16 17:27:18;;;;;;;6.47;5.70;;;;;;;27.21;61.25;100041.00;5061541;28;20032;-69
2022/08/16 17:29:46;;;;;;;7.38;5.85;;;;;;;27.25;61.17;100042.41;5074117;28;20063;-69
2022/08/16 17:32:15;;;;;;;7.85;5.88;;;;;;;27.18;61.32;100035.91;5063815;28;20111;-69
2022/08/16 17:34:41;;;;;;;8.10;6.45;;;;;;;27.11;61.52;100050.97;5090172;28;20155;-69
2022/08/16 17:37:07;;;;;;;9.38;5.95;;;;;;;27.16;61.46;100058.63;5062502;28;20115;-69
2022/08/16 17:39:36;;;;;;;6.35;5.70;;;;;;;27.19;61.40;100061.03;5073389;28;20143;-67
2022/08/16 17:42:06;;;;;;;9.50;5.88;;;;;;;27.17;61.60;100074.66;5081302;28;20029;-68
2022/08/16 17:44:32;;;;;;;8.00;6.30;;;;;;;27.07;61.71;100065.72;5072454;28;20029;-67
2022/08/16 17:46:58;;;;;;;7.68;6.00;;;;;;;26.97;62.03;100072.97;5087847;28;20035;-69
2022/08/16 17:49:23;;;;;;;6.57;5.45;;;;;;;26.90;62.37;100080.81;5076156;28;20064;-69
2022/08/16 17:51:49;;;;;;;8.50;6.10;;;;;;;26.85;62.47;100087.59;5076036;28;20028;-67
2022/08/16 17:54:15;;;;;;;8.48;6.38;;;;;;;26.77;62.81;100094.59;5074606;28;20036;-68
2022/08/16 17:56:40;;;;;;;10.65;6.82;;;;;;;26.74;62.94;100102.13;5076897;28;20059;-67
2022/08/16 17:59:06;;;;;;;7.40;6.45;;;;;;;26.74;62.85;100113.75;5065809;28;20159;-66
2022/08/16 18:01:32;;;;;;;7.13;6.20;;;;;;;26.71;62.26;100103.25;5069400;28;20038;-65
2022/08/16 18:03:58;;;;;;;6.57;5.35;;;;;;;26.68;62.86;100103.53;5060505;28;20028;-67
2022/08/16 18:06:24;;;;;;;6.75;6.13;;;;;;;26.55;63.57;100110.22;5063689;28;20029;-68
2022/08/16 18:08:50;;;;;;;7.10;6.40;;;;;;;26.47;63.87;100110.91;5061035;28;20112;-68
2022/08/16 18:11:17;;;;;;;8.15;7.30;;;;;;;26.42;64.17;100111.31;5074061;28;20123;-68
2022/08/16 18:13:45;;;;;;;9.35;7.05;;;;;;;26.38;64.30;100111.75;5075367;28;20052;-67
2022/08/16 18:16:14;;;;;;;7.15;5.90;;;;;;;26.39;64.39;100113.44;5072616;28;20048;-67
2022/08/16 18:18:40;;;;;;;7.22;6.53;;;;;;;26.37;64.40;100110.91;5075687;28;20039;-68
2022/08/16 18:23:50;;;;;;;6.47;5.70;;;;;;;26.33;64.51;100097.81;5074517;28;20101;-68
2022/08/16 18:26:15;;;;;;;7.68;6.32;;;;;;;26.25;64.07;100107.47;5074629;28;20434;-66
2022/08/16 18:28:41;;;;;;;8.63;5.95;;;;;;;26.19;63.86;100124.19;5078172;28;20079;-67
2022/08/16 18:31:07;;;;;;;7.70;6.47;;;;;;;26.06;64.27;100118.22;5075358;28;20029;-68
2022/08/16 18:33:34;;;;;;;8.43;6.80;;;;;;;26.08;63.74;100104.63;5073609;28;20138;-68
2022/08/16 18:36:00;;;;;;;7.45;6.65;;;;;;;26.07;63.62;100097.53;5068720;28;20060;-66
2022/08/16 18:38:26;;;;;;;8.77;7.15;;;;;;;26.02;63.62;100096.13;5070542;28;20056;-68
2022/08/16 18:40:51;;;;;;;7.03;6.25;;;;;;;25.94;63.74;100108.56;5075000;28;20505;-68
2022/08/16 18:43:19;;;;;;;7.07;6.35;;;;;;;25.92;63.65;100097.91;5075250;28;20032;-67
2022/08/16 18:45:49;;;;;;;7.47;5.85;;;;;;;25.86;63.41;100094.94;5075042;28;20111;-67
2022/08/16 18:48:15;;;;;;;6.53;5.82;;;;;;;25.78;63.69;100085.72;5062694;28;20033;-69
2022/08/16 18:50:43;;;;;;;7.28;6.18;;;;;;;25.75;63.41;100085.97;5070205;28;20033;-67
2022/08/16 18:53:11;;;;;;;9.07;7.10;;;;;;;25.78;63.68;100091.09;5064559;28;20041;-68
2022/08/16 18:55:38;;;;;;;7.30;6.55;;;;;;;25.75;63.71;100083.25;5076121;28;20085;-68
2022/08/16 18:58:04;;;;;;;9.40;8.27;;;;;;;25.75;63.73;100082.41;5088239;28;20080;-66
2022/08/16 19:00:33;;;;;;;11.75;8.52;;;;;;;25.72;63.71;100094.28;5078109;28;20037;-67
2022/08/16 19:03:17;;;;;;;8.98;7.03;;;;;;;25.65;63.96;100095.81;5073493;28;20118;-67
2022/08/16 19:05:49;;;;;;;10.18;7.32;;;;;;;25.59;64.24;100082.94;5074412;28;20421;-66
2022/08/16 19:08:15;;;;;;;8.67;7.30;;;;;;;25.59;64.02;100087.47;5065633;28;20033;-68
2022/08/16 19:10:42;;;;;;;8.65;6.95;;;;;;;25.59;63.92;100085.63;5073527;28;20020;-67
2022/08/16 19:13:14;;;;;;;7.60;6.40;;;;;;;25.55;64.09;100081.50;5074123;28;20036;-66
2022/08/16 19:15:41;;;;;;;9.63;6.50;;;;;;;25.52;64.14;100082.63;5074081;28;20444;-66
2022/08/16 19:18:07;;;;;;;7.13;6.40;;;;;;;25.51;64.31;100085.47;5074577;28;20036;-67
2022/08/16 19:20:34;;;;;;;8.20;6.75;;;;;;;25.46;64.51;100093.94;5074042;28;20029;-67
2022/08/16 19:22:59;;;;;;;11.02;7.05;;;;;;;25.36;64.68;100093.03;5076260;28;20040;-67
2022/08/16 19:25:28;;;;;;;10.57;7.80;;;;;;;25.31;65.10;100090.75;5077270;28;20039;-66
2022/08/16 19:27:53;;;;;;;10.48;7.82;;;;;;;25.13;65.52;100097.72;5079880;28;20077;-65
2022/08/16 19:30:19;;;;;;;10.27;7.05;;;;;;;24.95;66.02;100099.31;5068773;28;20472;-66
2022/08/16 19:32:45;;;;;;;8.90;7.53;;;;;;;24.82;66.53;100100.38;5079946;28;20064;-67
2022/08/16 19:35:12;;;;;;;7.13;6.43;;;;;;;24.78;66.65;100106.97;5073806;28;20029;-66
2022/08/16 19:37:38;;;;;;;9.70;6.00;;;;;;;24.73;66.69;100109.19;5061185;28;20104;-66
2022/08/16 19:40:06;;;;;;;7.72;6.90;;;;;;;24.63;67.36;100113.66;5064070;28;20131;-67
2022/08/16 19:42:32;;;;;;;7.95;6.72;;;;;;;24.49;67.52;100111.25;5076182;28;20041;-67
2022/08/16 19:44:59;;;;;;;7.97;6.40;;;;;;;24.50;67.42;100110.31;5072362;28;20036;-68
2022/08/16 19:47:26;;;;;;;9.90;6.95;;;;;;;24.44;67.68;100117.03;5074873;28;20408;-68
2022/08/16 19:49:52;;;;;;;7.22;6.18;;;;;;;24.42;67.73;100119.00;5087452;28;20499;-67
2022/08/16 19:52:20;;;;;;;7.05;6.10;;;;;;;24.28;68.22;100125.47;5090909;28;20108;-67
2022/08/16 19:54:48;;;;;;;6.80;6.10;;;;;;;24.26;68.18;100123.91;5073037;28;20064;-66
2022/08/16 19:57:18;;;;;;;7.15;6.45;;;;;;;24.27;68.18;100121.09;5071723;28;20029;-65
2022/08/16 19:59:43;;;;;;;5.72;5.13;;;;;;;24.27;68.26;100129.16;5070740;28;20043;-67
2022/08/16 20:02:22;;;;;;;6.20;5.28;;;;;;;24.32;68.14;100126.91;5089411;28;20028;-67
2022/08/16 20:04:53;;;;;;;8.35;5.80;;;;;;;24.39;67.65;100130.00;5094256;28;20055;-66
2022/08/16 20:07:20;;;;;;;7.55;5.78;;;;;;;24.45;67.33;100137.53;5094045;28;20036;-66
2022/08/16 20:09:46;;;;;;;9.05;6.25;;;;;;;24.51;66.98;100125.44;5084409;28;20071;-66
2022/08/16 20:12:19;;;;;;;7.30;5.78;;;;;;;24.54;67.02;100133.25;5075326;28;20524;-66
2022/08/16 20:14:45;;;;;;;7.47;6.18;;;;;;;24.55;66.72;100124.19;5075099;28;20475;-67